Time;durP1;ratioP1;P1;durP2;ratioP2;P2;SDS_P1;SDS_P2;PMS_P1;PMS_P2;Temp;Humidity;BMP_temperature;BMP_pressure;BME280_temperature;BME280_humidity;BME280_pressure;Samples;Min_cycle;Max_cycle;Signal;HPM_P1;HPM_P2
2021/08/17 00:01:59;;;;;;;16.13;11.13;;;12.20;99.90;;;;;;5036861;28;20544;-68
2021/08/17 00:04:25;;;;;;;19.43;13.47;;;12.30;99.90;;;;;;5036893;28;20172;-68
2021/08/17 00:06:51;;;;;;;22.83;13.27;;;12.20;99.90;;;;;;5047823;28;20643;-67
2021/08/17 00:09:17;;;;;;;19.10;12.60;;;12.20;99.90;;;;;;5053573;28;20171;-67
2021/08/17 00:11:43;;;;;;;24.47;13.43;;;12.20;99.90;;;;;;5050166;28;20224;-67
2021/08/17 00:14:08;;;;;;;25.03;13.40;;;12.30;99.90;;;;;;5053715;28;20170;-67
2021/08/17 00:16:34;;;;;;;23.17;14.47;;;12.20;99.90;;;;;;5041801;28;20233;-67
2021/08/17 00:19:00;;;;;;;26.30;14.03;;;12.20;99.90;;;;;;5033477;28;20668;-67
2021/08/17 00:21:25;;;;;;;32.30;14.87;;;12.20;99.90;;;;;;5043974;28;20206;-66
2021/08/17 00:23:51;;;;;;;27.80;15.37;;;12.20;99.90;;;;;;5053363;28;20179;-68
2021/08/17 00:26:17;;;;;;;24.13;14.77;;;12.20;99.90;;;;;;5044454;28;20211;-68
2021/08/17 00:28:42;;;;;;;31.73;14.50;;;12.20;99.90;;;;;;5035228;28;20187;-68
2021/08/17 00:31:08;;;;;;;33.57;16.33;;;12.20;99.90;;;;;;5040009;28;20620;-69
2021/08/17 00:33:34;;;;;;;27.43;16.03;;;12.10;99.90;;;;;;5053693;28;20178;-67
2021/08/17 00:36:03;;;;;;;33.43;18.20;;;12.10;99.90;;;;;;5047937;28;20556;-68
2021/08/17 00:38:28;;;;;;;33.70;17.80;;;12.10;99.90;;;;;;5033613;28;20196;-67
2021/08/17 00:40:54;;;;;;;32.67;16.03;;;12.00;99.90;;;;;;5037773;28;20222;-68
2021/08/17 00:43:22;;;;;;;36.80;17.37;;;12.10;99.90;;;;;;5053953;28;20170;-67
2021/08/17 00:45:47;;;;;;;33.40;18.60;;;12.00;99.90;;;;;;5050327;28;20176;-67
2021/08/17 00:48:13;;;;;;;34.27;18.10;;;12.00;99.90;;;;;;5033361;28;20194;-68
2021/08/17 00:50:38;;;;;;;40.33;17.90;;;12.00;99.90;;;;;;5035191;28;20175;-67
2021/08/17 00:53:04;;;;;;;42.87;20.47;;;12.00;99.90;;;;;;5053431;28;20197;-68
2021/08/17 00:55:34;;;;;;;38.47;19.93;;;12.00;99.90;;;;;;5052900;28;20225;-67
2021/08/17 00:58:00;;;;;;;43.77;18.87;;;12.00;99.90;;;;;;5048309;28;20592;-67
2021/08/17 01:00:27;;;;;;;39.03;18.90;;;12.10;99.90;;;;;;5047211;28;20216;-68
2021/08/17 01:02:53;;;;;;;38.67;18.90;;;12.10;99.90;;;;;;5052604;28;20174;-68
2021/08/17 01:05:22;;;;;;;45.33;19.27;;;12.00;99.90;;;;;;5039177;28;20629;-66
2021/08/17 01:07:48;;;;;;;39.23;19.23;;;12.00;99.90;;;;;;5035325;28;20237;-68
2021/08/17 01:10:13;;;;;;;43.43;21.00;;;12.10;99.90;;;;;;5053859;28;20175;-69
2021/08/17 01:12:40;;;;;;;37.30;18.93;;;12.00;99.90;;;;;;5051051;28;20171;-68
2021/08/17 01:15:07;;;;;;;52.00;23.37;;;12.10;99.90;;;;;;5053877;28;20171;-67
2021/08/17 01:17:32;;;;;;;43.50;20.70;;;12.10;99.90;;;;;;5051494;28;20191;-67
2021/08/17 01:19:58;;;;;;;51.47;22.07;;;12.10;99.90;;;;;;5049792;28;20252;-67
2021/08/17 01:22:24;;;;;;;48.23;22.23;;;12.10;99.90;;;;;;5052358;28;20543;-68
2021/08/17 01:24:50;;;;;;;47.20;21.23;;;12.10;99.90;;;;;;5033265;28;20176;-67
2021/08/17 01:27:15;;;;;;;49.53;22.60;;;12.20;99.90;;;;;;5033067;28;20683;-67
2021/08/17 01:29:42;;;;;;;51.33;20.87;;;12.20;99.90;;;;;;5050089;28;20559;-67
2021/08/17 01:32:12;;;;;;;56.57;22.33;;;12.30;99.90;;;;;;5052329;28;20203;-67
2021/08/17 01:34:41;;;;;;;51.80;23.27;;;12.30;99.90;;;;;;5035099;28;20179;-68
2021/08/17 01:37:07;;;;;;;50.23;20.97;;;12.30;99.90;;;;;;5032195;28;20542;-68
2021/08/17 01:39:32;;;;;;;51.23;22.20;;;12.30;99.90;;;;;;5046016;28;20209;-67
2021/08/17 01:41:58;;;;;;;66.47;23.10;;;12.30;99.90;;;;;;5033801;28;20535;-66
2021/08/17 01:44:23;;;;;;;53.43;22.70;;;12.40;99.90;;;;;;5045448;28;20202;-67
2021/08/17 01:46:49;;;;;;;55.00;23.27;;;12.40;99.90;;;;;;5053180;28;20186;-68
2021/08/17 01:49:17;;;;;;;62.63;23.23;;;12.30;99.90;;;;;;5040890;28;20199;-67
2021/08/17 01:51:44;;;;;;;52.40;21.27;;;12.40;99.90;;;;;;5033952;28;20254;-68
2021/08/17 01:54:09;;;;;;;58.97;22.00;;;12.40;99.90;;;;;;5046243;28;20187;-67
2021/08/17 01:56:38;;;;;;;56.10;23.07;;;12.30;99.90;;;;;;5054027;28;20178;-68
2021/08/17 01:59:03;;;;;;;65.10;22.50;;;12.30;99.90;;;;;;5044079;28;20643;-68
2021/08/17 02:01:29;;;;;;;46.53;21.53;;;12.30;99.90;;;;;;5047711;28;20301;-69
2021/08/17 02:03:55;;;;;;;53.30;23.13;;;12.30;99.90;;;;;;5046941;28;20167;-68
2021/08/17 02:06:21;;;;;;;54.63;22.40;;;12.30;99.90;;;;;;5048861;28;20703;-68
2021/08/17 02:08:47;;;;;;;62.23;25.63;;;12.30;99.90;;;;;;5044233;28;20201;-68
2021/08/17 02:11:12;;;;;;;59.00;23.53;;;12.30;99.90;;;;;;5032854;28;20531;-67
2021/08/17 02:13:38;;;;;;;59.13;24.03;;;12.30;99.90;;;;;;5035981;28;20266;-68
2021/08/17 02:16:04;;;;;;;58.17;23.07;;;12.30;99.90;;;;;;5051776;28;20175;-68
2021/08/17 02:18:31;;;;;;;55.10;22.67;;;12.20;99.90;;;;;;5048383;28;20210;-68
2021/08/17 02:21:00;;;;;;;54.73;22.60;;;12.20;99.90;;;;;;5031182;28;20195;-67
2021/08/17 02:23:27;;;;;;;53.67;22.00;;;12.20;99.90;;;;;;5034045;28;20675;-69
2021/08/17 02:25:53;;;;;;;54.73;23.30;;;12.20;99.90;;;;;;5051539;28;20166;-67
2021/08/17 02:28:19;;;;;;;51.60;22.20;;;12.20;99.90;;;;;;5050145;28;20191;-66
2021/08/17 02:30:46;;;;;;;55.70;23.03;;;12.20;99.90;;;;;;5031216;28;20167;-66
2021/08/17 02:33:12;;;;;;;50.33;21.57;;;12.20;99.90;;;;;;5031468;28;20179;-67
2021/08/17 02:35:38;;;;;;;54.53;23.80;;;12.20;99.90;;;;;;5050667;28;20224;-67
2021/08/17 02:38:05;;;;;;;54.50;22.67;;;12.20;99.90;;;;;;5051355;28;20218;-67
2021/08/17 02:40:31;;;;;;;49.30;24.77;;;12.20;99.90;;;;;;5032925;28;20599;-67
2021/08/17 02:42:57;;;;;;;61.40;23.07;;;12.20;99.90;;;;;;5029866;28;20698;-67
2021/08/17 02:45:22;;;;;;;54.83;22.43;;;12.20;99.90;;;;;;5048263;28;20182;-66
2021/08/17 02:47:48;;;;;;;49.47;22.03;;;12.20;99.90;;;;;;5051582;28;20194;-66
2021/08/17 02:50:13;;;;;;;48.03;21.93;;;12.10;99.90;;;;;;5034092;28;20265;-67
2021/08/17 02:52:39;;;;;;;50.97;22.80;;;12.10;99.90;;;;;;5031249;28;20211;-67
2021/08/17 02:55:07;;;;;;;56.43;22.03;;;12.10;99.90;;;;;;5044667;28;20182;-66
2021/08/17 02:57:32;;;;;;;62.47;22.97;;;12.10;99.90;;;;;;5049816;28;20197;-66
2021/08/17 02:59:58;;;;;;;51.03;22.47;;;12.10;99.90;;;;;;5047392;28;20277;-67
2021/08/17 03:02:24;;;;;;;43.23;22.20;;;12.10;99.90;;;;;;5034990;28;20172;-66
2021/08/17 03:04:49;;;;;;;53.50;22.40;;;12.10;99.90;;;;;;5041211;28;20221;-67
2021/08/17 03:07:15;;;;;;;44.07;20.50;;;12.10;99.90;;;;;;5051063;28;20194;-66
2021/08/17 03:09:40;;;;;;;55.50;22.37;;;12.10;99.90;;;;;;5044490;28;20182;-68
2021/08/17 03:12:07;;;;;;;59.73;23.83;;;12.10;99.90;;;;;;5032892;28;20168;-68
2021/08/17 03:14:32;;;;;;;51.73;22.40;;;12.10;99.90;;;;;;5039463;28;20189;-68
2021/08/17 03:16:58;;;;;;;51.50;23.63;;;12.10;99.90;;;;;;5053073;28;20274;-68
2021/08/17 03:19:24;;;;;;;50.17;22.30;;;12.10;99.90;;;;;;5046872;28;20218;-67
2021/08/17 03:21:49;;;;;;;53.57;23.50;;;12.10;99.90;;;;;;5031562;28;20199;-67
2021/08/17 03:24:15;;;;;;;53.00;24.53;;;12.10;99.90;;;;;;5035135;28;20182;-67
2021/08/17 03:26:41;;;;;;;53.27;23.27;;;12.10;99.90;;;;;;5050569;28;20175;-67
2021/08/17 03:29:06;;;;;;;50.87;21.27;;;12.00;99.90;;;;;;5048140;28;20190;-67
2021/08/17 03:31:32;;;;;;;47.97;20.43;;;12.00;99.90;;;;;;5033231;28;20171;-66
2021/08/17 03:33:57;;;;;;;46.60;21.70;;;12.00;99.90;;;;;;5034889;28;20176;-66
2021/08/17 03:36:23;;;;;;;56.93;23.73;;;12.00;99.90;;;;;;5054583;28;20209;-68
2021/08/17 03:38:49;;;;;;;48.70;22.37;;;12.00;99.90;;;;;;5055145;28;20745;-67
2021/08/17 03:41:14;;;;;;;57.17;23.73;;;12.00;99.90;;;;;;5034386;28;20680;-68
2021/08/17 03:43:40;;;;;;;55.53;23.27;;;12.00;99.90;;;;;;5035178;28;20178;-68
2021/08/17 03:46:05;;;;;;;52.40;21.73;;;12.00;99.90;;;;;;5052905;28;20550;-67
2021/08/17 03:48:32;;;;;;;57.63;23.20;;;12.00;99.90;;;;;;5055713;28;20195;-66
2021/08/17 03:50:58;;;;;;;49.43;23.63;;;12.10;99.90;;;;;;5036972;28;20187;-68
2021/08/17 03:53:23;;;;;;;47.10;22.70;;;12.00;99.90;;;;;;5034346;28;20659;-66
2021/08/17 03:55:49;;;;;;;48.47;20.67;;;12.10;99.90;;;;;;5048795;28;20187;-67
2021/08/17 03:58:15;;;;;;;45.83;20.60;;;12.00;99.90;;;;;;5054022;28;20244;-67
2021/08/17 04:00:40;;;;;;;45.93;22.70;;;12.10;99.90;;;;;;5041944;28;20302;-68
2021/08/17 04:03:07;;;;;;;49.40;20.27;;;12.10;99.90;;;;;;5052343;28;20193;-66
2021/08/17 04:05:33;;;;;;;46.47;20.13;;;12.10;99.90;;;;;;5050628;28;20182;-67
2021/08/17 04:07:58;;;;;;;49.80;20.77;;;12.10;99.90;;;;;;5054325;28;20660;-68
2021/08/17 04:10:24;;;;;;;51.73;21.63;;;12.00;99.90;;;;;;5043102;28;20194;-68
2021/08/17 04:12:50;;;;;;;44.17;20.37;;;12.10;99.90;;;;;;5033596;28;20768;-68
2021/08/17 04:15:15;;;;;;;46.50;20.60;;;12.10;99.90;;;;;;5042153;28;20659;-67
2021/08/17 04:17:41;;;;;;;45.30;20.67;;;12.10;99.90;;;;;;5053277;28;20733;-66
2021/08/17 04:20:09;;;;;;;50.03;19.30;;;12.00;99.90;;;;;;5168937;22;20225;-67
2021/08/17 04:22:35;;;;;;;46.03;20.20;;;12.10;99.90;;;;;;5092429;28;20173;-67
2021/08/17 04:25:01;;;;;;;53.17;22.30;;;12.10;99.90;;;;;;5092051;28;20638;-67
2021/08/17 04:27:27;;;;;;;54.67;22.37;;;12.10;99.90;;;;;;5093861;28;20479;-66
2021/08/17 04:29:53;;;;;;;41.00;20.33;;;12.20;99.90;;;;;;5092929;28;20208;-67
2021/08/17 04:32:18;;;;;;;44.93;19.87;;;12.20;99.90;;;;;;5092338;28;20546;-67
2021/08/17 04:34:44;;;;;;;42.43;18.47;;;12.20;99.90;;;;;;5093363;28;20182;-67
2021/08/17 04:37:09;;;;;;;58.90;23.97;;;12.20;99.90;;;;;;5093499;28;20177;-67
2021/08/17 04:39:36;;;;;;;42.80;20.67;;;12.20;99.90;;;;;;5091547;28;20552;-67
2021/08/17 04:42:02;;;;;;;50.67;22.37;;;12.30;99.90;;;;;;5092194;28;20177;-67
2021/08/17 04:44:28;;;;;;;47.10;21.30;;;12.30;99.90;;;;;;5092084;28;20642;-67
2021/08/17 04:46:53;;;;;;;45.43;19.70;;;12.40;99.90;;;;;;5091840;28;20173;-67
2021/08/17 04:49:19;;;;;;;44.47;19.67;;;12.40;99.90;;;;;;5091845;28;20227;-67
2021/08/17 04:51:45;;;;;;;44.27;20.30;;;12.40;99.90;;;;;;5091575;28;20554;-67
2021/08/17 04:54:10;;;;;;;38.47;20.03;;;12.50;99.90;;;;;;5093092;28;20172;-67
2021/08/17 04:56:36;;;;;;;42.10;20.00;;;12.50;99.90;;;;;;5091636;28;20268;-67
2021/08/17 04:59:02;;;;;;;49.63;19.17;;;12.50;99.90;;;;;;5092812;28;20220;-67
2021/08/17 05:01:27;;;;;;;42.93;19.23;;;12.50;99.90;;;;;;5092269;28;20204;-67
2021/08/17 05:03:53;;;;;;;43.27;20.20;;;12.50;99.90;;;;;;5091704;28;20176;-67
2021/08/17 05:06:20;;;;;;;35.67;18.60;;;12.50;99.90;;;;;;5091444;28;20193;-67
2021/08/17 05:08:45;;;;;;;42.73;19.37;;;12.40;99.90;;;;;;5092692;28;20247;-67
2021/08/17 05:11:11;;;;;;;36.73;21.53;;;12.50;99.90;;;;;;5090980;28;20705;-66
2021/08/17 05:13:36;;;;;;;45.43;20.93;;;12.50;99.90;;;;;;5091410;28;20177;-67
2021/08/17 05:16:02;;;;;;;45.70;19.77;;;12.50;99.90;;;;;;5092396;28;20189;-66
2021/08/17 05:18:32;;;;;;;45.87;21.50;;;12.60;99.90;;;;;;5091255;28;20213;-67
2021/08/17 05:21:00;;;;;;;42.83;20.50;;;12.60;99.90;;;;;;5091909;28;20208;-67
2021/08/17 05:23:27;;;;;;;42.63;20.20;;;12.70;99.90;;;;;;5092664;28;20722;-67
2021/08/17 05:25:53;;;;;;;44.67;22.20;;;12.80;99.90;;;;;;5090872;28;20238;-67
2021/08/17 05:28:20;;;;;;;45.00;19.43;;;12.80;99.90;;;;;;5092481;28;20666;-67
2021/08/17 05:30:46;;;;;;;34.27;19.93;;;12.90;99.90;;;;;;5090395;28;20579;-67
2021/08/17 05:33:12;;;;;;;39.43;19.23;;;13.10;99.90;;;;;;5092430;28;20640;-67
2021/08/17 05:35:38;;;;;;;42.73;19.90;;;13.10;99.90;;;;;;5092608;28;20185;-67
2021/08/17 05:38:05;;;;;;;39.67;18.33;;;13.10;99.90;;;;;;5092098;28;20173;-66
2021/08/17 05:40:30;;;;;;;43.97;20.40;;;13.10;99.90;;;;;;5092005;28;20676;-67
2021/08/17 05:42:56;;;;;;;45.23;21.13;;;13.10;99.90;;;;;;5090724;28;20181;-67
2021/08/17 05:45:22;;;;;;;50.23;21.97;;;13.20;99.90;;;;;;5091921;28;20650;-66
2021/08/17 05:47:48;;;;;;;48.17;22.10;;;13.30;99.90;;;;;;5090857;28;20173;-67
2021/08/17 05:50:15;;;;;;;44.70;20.77;;;13.30;99.90;;;;;;5090344;28;20615;-67
2021/08/17 05:52:41;;;;;;;36.50;20.83;;;13.40;99.90;;;;;;5090413;28;20181;-67
2021/08/17 05:55:08;;;;;;;43.60;21.63;;;13.60;99.90;;;;;;5090252;28;20177;-67
2021/08/17 05:57:35;;;;;;;49.13;21.73;;;13.60;99.90;;;;;;5088786;28;20445;-67
2021/08/17 06:00:03;;;;;;;41.90;19.63;;;13.70;99.90;;;;;;5089379;28;20213;-67
2021/08/17 06:02:29;;;;;;;42.50;18.80;;;13.80;99.90;;;;;;5091106;28;20182;-67
2021/08/17 06:04:54;;;;;;;41.90;19.33;;;13.90;99.90;;;;;;5091202;28;20590;-67
2021/08/17 06:07:20;;;;;;;36.03;19.37;;;14.00;99.90;;;;;;5090666;28;20588;-67
2021/08/17 06:09:45;;;;;;;42.50;23.00;;;14.10;99.90;;;;;;5091103;28;20206;-67
2021/08/17 06:12:11;;;;;;;35.93;19.73;;;14.10;99.90;;;;;;5091953;28;20260;-67
2021/08/17 06:14:37;;;;;;;35.30;19.53;;;14.30;99.90;;;;;;5089994;28;20669;-67
2021/08/17 06:17:04;;;;;;;37.87;18.83;;;14.20;99.90;;;;;;5090224;28;20177;-67
2021/08/17 06:19:29;;;;;;;41.30;20.40;;;14.50;99.90;;;;;;5090044;28;20209;-68
2021/08/17 06:21:55;;;;;;;39.20;20.07;;;14.70;99.90;;;;;;5091175;28;20684;-67
2021/08/17 06:24:21;;;;;;;38.27;19.20;;;14.90;99.90;;;;;;5091405;28;20274;-68
2021/08/17 06:26:46;;;;;;;37.07;18.80;;;15.10;99.90;;;;;;5091531;28;20169;-68
2021/08/17 06:29:12;;;;;;;35.17;18.43;;;15.30;99.90;;;;;;5091385;28;20323;-68
2021/08/17 06:31:38;;;;;;;33.23;17.57;;;15.40;99.90;;;;;;5094592;28;20239;-68
2021/08/17 06:34:03;;;;;;;32.60;19.40;;;15.40;99.90;;;;;;5092140;28;20185;-68
2021/08/17 06:36:30;;;;;;;34.13;18.17;;;15.50;99.90;;;;;;5090742;28;20184;-67
2021/08/17 06:38:56;;;;;;;32.73;19.10;;;15.80;99.90;;;;;;5088826;28;20224;-68
2021/08/17 06:41:21;;;;;;;36.97;17.97;;;16.10;99.90;;;;;;5089768;28;20209;-68
2021/08/17 06:43:47;;;;;;;29.93;17.57;;;16.50;99.90;;;;;;5090365;28;20185;-68
2021/08/17 06:46:12;;;;;;;29.30;16.30;;;16.70;99.90;;;;;;5091412;28;20257;-68
2021/08/17 06:48:38;;;;;;;31.50;17.57;;;16.90;99.90;;;;;;5089784;28;20200;-68
2021/08/17 06:51:04;;;;;;;32.53;17.83;;;17.30;99.90;;;;;;5091073;28;20170;-68
2021/08/17 06:53:31;;;;;;;26.83;16.30;;;17.80;99.90;;;;;;5091382;28;20595;-67
2021/08/17 06:55:57;;;;;;;27.37;17.03;;;18.10;99.90;;;;;;5090892;28;20186;-65
2021/08/17 06:58:22;;;;;;;23.60;16.47;;;18.00;99.90;;;;;;5091144;28;20197;-65
2021/08/17 07:00:48;;;;;;;28.60;16.50;;;18.20;99.90;;;;;;5090358;28;20227;-65
2021/08/17 07:03:15;;;;;;;28.80;17.83;;;18.00;99.90;;;;;;5089889;28;20574;-67
2021/08/17 07:05:43;;;;;;;32.57;16.97;;;17.90;99.90;;;;;;5090231;28;20216;-68
2021/08/17 07:08:10;;;;;;;30.83;16.90;;;17.50;99.90;;;;;;5093760;28;20189;-67
2021/08/17 07:10:37;;;;;;;31.03;16.30;;;17.40;99.90;;;;;;5094247;28;20200;-67
2021/08/17 07:13:03;;;;;;;32.30;17.17;;;17.40;99.90;;;;;;5094791;28;20177;-67
2021/08/17 07:15:29;;;;;;;25.77;16.67;;;17.50;99.90;;;;;;5093392;28;20758;-65
2021/08/17 07:17:55;;;;;;;26.90;17.73;;;17.50;99.90;;;;;;5093493;28;20891;-68
2021/08/17 07:20:21;;;;;;;28.30;16.27;;;17.40;99.90;;;;;;5094326;28;20208;-67
2021/08/17 07:22:46;;;;;;;32.17;17.23;;;17.40;99.90;;;;;;5093403;28;20184;-68
2021/08/17 07:25:13;;;;;;;28.47;16.63;;;17.50;99.90;;;;;;5093239;28;20178;-67
2021/08/17 07:27:39;;;;;;;27.87;16.60;;;17.50;99.90;;;;;;5093201;28;20200;-67
2021/08/17 07:30:11;;;;;;;30.17;17.47;;;17.30;99.90;;;;;;5092689;28;20220;-67
2021/08/17 07:32:37;;;;;;;26.47;16.13;;;17.50;99.90;;;;;;5094543;28;20181;-68
2021/08/17 07:35:03;;;;;;;25.87;16.37;;;17.60;99.90;;;;;;5094291;28;20182;-68
2021/08/17 07:37:28;;;;;;;27.97;16.63;;;17.50;99.90;;;;;;5093755;28;20174;-68
2021/08/17 07:39:54;;;;;;;27.83;16.00;;;17.30;99.90;;;;;;5092453;28;20263;-67
2021/08/17 07:42:19;;;;;;;24.70;15.97;;;17.20;99.90;;;;;;5093042;28;20192;-68
2021/08/17 07:44:45;;;;;;;29.70;15.13;;;16.80;99.90;;;;;;5093934;28;20181;-67
2021/08/17 07:47:10;;;;;;;26.50;16.60;;;16.70;99.90;;;;;;5092747;28;20250;-68
2021/08/17 07:49:36;;;;;;;30.30;17.13;;;16.60;99.90;;;;;;5093660;28;20193;-67
2021/08/17 07:52:02;;;;;;;29.73;16.97;;;16.60;99.90;;;;;;5094049;28;20174;-65
2021/08/17 07:54:28;;;;;;;34.30;19.27;;;16.60;99.90;;;;;;5093937;28;20174;-68
2021/08/17 07:56:53;;;;;;;27.87;16.57;;;16.80;99.90;;;;;;5093889;28;20169;-67
2021/08/17 07:59:19;;;;;;;23.57;16.07;;;16.90;99.90;;;;;;5092237;28;20198;-67
2021/08/17 08:01:45;;;;;;;23.77;16.33;;;17.10;99.90;;;;;;5093979;28;20733;-68
2021/08/17 08:04:11;;;;;;;26.60;16.70;;;17.50;99.90;;;;;;5093815;28;20303;-67
2021/08/17 08:06:37;;;;;;;25.80;16.27;;;17.80;99.90;;;;;;5092403;28;20201;-68
2021/08/17 08:09:04;;;;;;;21.43;14.40;;;18.10;99.90;;;;;;5092337;28;20262;-68
2021/08/17 08:11:30;;;;;;;20.40;14.90;;;18.50;99.90;;;;;;5093523;28;20307;-65
2021/08/17 08:13:57;;;;;;;22.90;14.90;;;18.90;99.90;;;;;;5092279;28;20569;-66
2021/08/17 08:16:24;;;;;;;19.73;13.17;;;19.20;99.90;;;;;;5093630;28;20196;-64
2021/08/17 08:18:49;;;;;;;21.33;14.30;;;19.50;99.90;;;;;;5093048;28;20205;-65
2021/08/17 08:21:15;;;;;;;20.87;15.33;;;19.90;99.90;;;;;;5093157;28;20205;-65
2021/08/17 08:23:40;;;;;;;19.80;13.60;;;20.10;99.90;;;;;;5091847;28;20658;-65
2021/08/17 08:26:06;;;;;;;18.67;13.53;;;20.10;99.90;;;;;;5093781;28;20170;-65
2021/08/17 08:28:32;;;;;;;21.63;15.37;;;20.20;99.90;;;;;;5093114;28;20193;-65
2021/08/17 08:30:57;;;;;;;23.00;14.60;;;20.30;99.90;;;;;;5092912;28;20666;-65
2021/08/17 08:33:23;;;;;;;20.20;13.90;;;20.40;99.90;;;;;;5092935;28;20177;-65
2021/08/17 08:35:49;;;;;;;17.83;13.13;;;20.10;99.90;;;;;;5090820;28;20630;-65
2021/08/17 08:38:14;;;;;;;17.70;13.73;;;19.80;99.90;;;;;;5091859;28;20185;-65
2021/08/17 08:40:44;;;;;;;20.97;13.13;;;19.50;99.90;;;;;;5092098;28;20605;-65
2021/08/17 08:43:11;;;;;;;17.47;12.67;;;19.30;99.90;;;;;;5092506;28;20170;-64
2021/08/17 08:45:38;;;;;;;17.83;12.73;;;19.00;99.90;;;;;;5089989;28;20169;-65
2021/08/17 08:48:04;;;;;;;21.17;14.53;;;19.10;99.90;;;;;;5086343;28;20211;-65
2021/08/17 08:50:33;;;;;;;15.43;12.20;;;19.30;99.90;;;;;;5092959;28;20200;-65
2021/08/17 08:52:59;;;;;;;16.87;12.43;;;19.40;99.90;;;;;;5092984;28;20180;-65
2021/08/17 08:55:25;;;;;;;16.63;11.57;;;19.50;99.90;;;;;;5092534;28;20794;-65
2021/08/17 08:57:50;;;;;;;20.43;13.57;;;19.30;99.90;;;;;;5092087;28;20190;-64
2021/08/17 09:00:16;;;;;;;14.73;12.10;;;19.10;99.90;;;;;;5089749;28;20232;-65
2021/08/17 09:02:43;;;;;;;18.07;11.83;;;18.90;99.90;;;;;;5092241;28;20634;-64
2021/08/17 09:05:09;;;;;;;17.10;12.80;;;18.90;99.90;;;;;;5090403;28;20596;-65
2021/08/17 09:07:42;;;;;;;16.60;12.00;;;19.20;99.90;;;;;;5091574;28;20302;-65
2021/08/17 09:10:14;;;;;;;16.77;12.57;;;19.50;99.90;;;;;;5092012;28;20304;-64
2021/08/17 09:12:46;;;;;;;17.37;12.50;;;19.60;99.90;;;;;;5091998;28;20182;-65
2021/08/17 09:15:18;;;;;;;19.87;14.13;;;19.50;99.90;;;;;;5091953;28;20184;-65
2021/08/17 09:17:55;;;;;;;19.80;13.17;;;19.50;99.90;;;;;;5092181;28;20173;-65
2021/08/17 09:20:28;;;;;;;20.87;13.50;;;19.20;99.90;;;;;;5092097;28;20205;-65
2021/08/17 09:22:54;;;;;;;20.80;13.97;;;19.20;99.90;;;;;;5091893;28;20184;-65
2021/08/17 09:25:32;;;;;;;18.37;14.03;;;19.30;99.90;;;;;;5090960;28;20169;-65
2021/08/17 09:28:32;;;;;;;20.37;13.33;;;19.50;99.90;;;;;;5090996;28;20192;-68
2021/08/17 09:31:00;;;;;;;19.60;14.03;;;19.40;99.90;;;;;;5090178;28;20213;-67
2021/08/17 09:33:39;;;;;;;23.47;14.23;;;19.40;99.90;;;;;;5092254;28;20184;-68
2021/08/17 09:36:06;;;;;;;18.87;14.23;;;19.10;99.90;;;;;;5092086;28;20181;-67
2021/08/17 09:38:32;;;;;;;18.53;14.27;;;18.80;99.90;;;;;;5091943;28;20186;-67
2021/08/17 09:41:02;;;;;;;17.70;12.77;;;18.60;99.90;;;;;;5090292;28;20673;-67
2021/08/17 09:43:27;;;;;;;24.40;15.13;;;18.50;99.90;;;;;;5090734;28;20169;-67
2021/08/17 09:45:53;;;;;;;19.67;14.43;;;18.50;99.90;;;;;;5089999;28;20223;-67
2021/08/17 09:48:30;;;;;;;20.00;14.00;;;18.60;99.90;;;;;;5090777;28;20559;-66
2021/08/17 09:50:56;;;;;;;22.37;13.67;;;18.80;99.90;;;;;;5091206;28;20210;-68
2021/08/17 09:53:23;;;;;;;16.63;12.53;;;19.00;99.90;;;;;;5091736;28;20254;-67
2021/08/17 09:55:51;;;;;;;21.97;14.37;;;18.90;99.90;;;;;;5091272;28;20186;-67
2021/08/17 09:58:21;;;;;;;23.00;14.00;;;18.70;99.90;;;;;;5091757;28;20686;-67
2021/08/17 10:00:48;;;;;;;22.50;15.60;;;18.80;99.90;;;;;;5090850;28;20579;-68
2021/08/17 10:03:16;;;;;;;18.87;12.37;;;18.90;99.90;;;;;;5091859;28;20177;-68
2021/08/17 10:05:41;;;;;;;19.90;14.30;;;18.80;99.90;;;;;;5091298;28;20219;-67
2021/08/17 10:08:11;;;;;;;18.73;12.83;;;18.70;99.90;;;;;;5089737;28;20169;-65
2021/08/17 10:10:39;;;;;;;18.10;12.60;;;18.50;99.90;;;;;;5090796;28;20180;-64
2021/08/17 10:13:08;;;;;;;16.47;13.60;;;18.60;99.90;;;;;;5091197;28;20192;-65
2021/08/17 10:15:34;;;;;;;17.73;12.93;;;18.50;99.90;;;;;;5091400;28;20184;-64
2021/08/17 10:18:01;;;;;;;19.10;13.27;;;18.50;99.90;;;;;;5091180;28;20184;-65
2021/08/17 10:20:27;;;;;;;23.07;14.50;;;18.60;99.90;;;;;;5091699;28;20208;-66
2021/08/17 10:22:53;;;;;;;19.67;13.27;;;18.50;99.90;;;;;;5091172;28;20157;-66
2021/08/17 10:25:19;;;;;;;21.37;15.10;;;18.40;99.90;;;;;;5090812;28;20237;-65
2021/08/17 10:27:45;;;;;;;18.43;13.73;;;18.40;99.90;;;;;;5091264;28;20177;-65
2021/08/17 10:30:23;;;;;;;25.20;14.77;;;18.50;99.90;;;;;;5091266;28;20231;-66
2021/08/17 10:32:54;;;;;;;20.83;13.00;;;18.50;99.90;;;;;;5091276;28;20256;-66
2021/08/17 10:35:34;;;;;;;16.83;12.87;;;18.50;99.90;;;;;;5080956;28;20209;-65
2021/08/17 10:38:09;;;;;;;15.73;12.20;;;18.50;99.90;;;;;;5090940;28;20181;-65
2021/08/17 10:43:16;;;;;;;16.97;13.83;;;18.20;99.90;;;;;;5095061;28;20192;-65
2021/08/17 10:45:59;;;;;;;19.03;13.73;;;18.30;99.90;;;;;;5094886;28;20177;-65
2021/08/17 10:51:37;;;;;;;21.13;14.17;;;18.60;99.90;;;;;;5077309;28;20658;-65
2021/08/17 10:54:03;;;;;;;23.30;14.93;;;18.70;99.90;;;;;;5094701;28;20188;-66
2021/08/17 10:56:34;;;;;;;21.50;14.10;;;18.70;99.90;;;;;;5094205;28;20274;-65
2021/08/17 10:59:00;;;;;;;20.07;13.77;;;18.80;99.90;;;;;;5095352;28;20246;-65
2021/08/17 11:01:35;;;;;;;20.27;13.50;;;18.90;99.90;;;;;;5095178;28;20282;-66
2021/08/17 11:04:18;;;;;;;19.53;12.93;;;19.00;99.90;;;;;;5094488;28;20556;-66
2021/08/17 11:06:48;;;;;;;17.00;11.80;;;19.00;99.90;;;;;;5093340;28;20174;-67
2021/08/17 11:09:16;;;;;;;17.83;13.83;;;19.00;99.90;;;;;;5093859;28;20189;-66
2021/08/17 11:12:05;;;;;;;20.30;12.40;;;18.80;99.90;;;;;;5094484;28;20184;-67
2021/08/17 11:14:32;;;;;;;16.57;11.73;;;18.70;99.90;;;;;;5094569;28;20587;-66
2021/08/17 11:17:01;;;;;;;16.53;12.07;;;18.50;99.90;;;;;;5093173;28;20181;-66
2021/08/17 11:19:35;;;;;;;17.70;12.37;;;18.30;99.90;;;;;;5093990;28;20209;-66
2021/08/17 11:22:03;;;;;;;17.57;12.87;;;18.10;99.90;;;;;;5094648;28;20196;-66
2021/08/17 11:24:31;;;;;;;16.07;12.83;;;18.00;99.90;;;;;;5093922;28;20660;-67
2021/08/17 11:27:13;;;;;;;18.23;11.57;;;17.80;99.90;;;;;;5093680;28;20223;-67
2021/08/17 11:29:47;;;;;;;16.03;12.10;;;17.70;99.90;;;;;;5093044;28;20208;-67
2021/08/17 11:32:41;;;;;;;16.33;11.20;;;17.50;99.90;;;;;;5094141;28;20186;-67
2021/08/17 11:35:16;;;;;;;11.93;10.07;;;17.40;99.90;;;;;;5094219;28;20260;-67
2021/08/17 11:37:44;;;;;;;11.57;10.37;;;17.10;99.90;;;;;;5093813;28;20165;-66
2021/08/17 11:40:11;;;;;;;13.23;10.40;;;17.00;99.90;;;;;;5093516;28;20208;-66
2021/08/17 11:42:41;;;;;;;12.07;9.90;;;17.00;99.90;;;;;;5092827;28;20260;-66
2021/08/17 11:45:09;;;;;;;12.23;9.50;;;16.90;99.90;;;;;;5093506;28;20166;-68
2021/08/17 11:47:37;;;;;;;13.80;10.07;;;17.00;99.90;;;;;;5093068;28;20173;-67
2021/08/17 11:50:06;;;;;;;12.13;10.13;;;17.00;99.90;;;;;;5093338;28;20669;-66
2021/08/17 11:52:36;;;;;;;14.97;10.53;;;17.10;99.90;;;;;;5093635;28;20170;-66
2021/08/17 11:55:07;;;;;;;15.43;11.07;;;17.10;99.90;;;;;;5094057;28;20178;-66
2021/08/17 11:57:38;;;;;;;14.00;10.50;;;17.00;99.90;;;;;;5094164;28;20598;-66
2021/08/17 12:00:14;;;;;;;14.27;10.33;;;17.00;99.90;;;;;;5092024;28;20217;-66
2021/08/17 12:02:45;;;;;;;12.43;10.63;;;17.20;99.90;;;;;;5072460;28;20230;-67
2021/08/17 12:05:13;;;;;;;13.37;11.80;;;17.30;99.90;;;;;;5092841;28;20586;-66
2021/08/17 12:07:39;;;;;;;15.90;11.67;;;17.40;99.90;;;;;;5093581;28;20508;-67
2021/08/17 12:10:07;;;;;;;13.33;11.03;;;17.40;99.90;;;;;;5091513;28;20228;-66
2021/08/17 12:12:58;;;;;;;13.67;12.27;;;17.40;99.90;;;;;;5092371;28;20205;-65
2021/08/17 12:15:55;;;;;;;11.83;10.20;;;17.50;99.90;;;;;;5093664;28;20188;-66
2021/08/17 12:18:27;;;;;;;11.90;10.33;;;17.40;99.90;;;;;;5093771;28;20720;-67
2021/08/17 12:20:56;;;;;;;13.33;11.53;;;17.40;99.90;;;;;;5092790;28;20189;-67
2021/08/17 12:23:36;;;;;;;13.23;10.53;;;17.20;99.90;;;;;;5093321;28;20173;-67
2021/08/17 12:26:22;;;;;;;17.70;11.47;;;17.30;99.90;;;;;;5093443;28;20173;-66
2021/08/17 12:28:50;;;;;;;13.43;10.83;;;17.30;99.90;;;;;;5093594;28;20576;-68
2021/08/17 12:31:38;;;;;;;13.93;11.27;;;17.40;99.90;;;;;;5093065;28;20184;-68
2021/08/17 12:34:09;;;;;;;15.43;11.13;;;17.40;99.90;;;;;;5093395;28;20184;-67
2021/08/17 12:36:37;;;;;;;15.73;10.30;;;17.40;99.90;;;;;;5092633;28;20176;-67